Time;durP1;ratioP1;P1;durP2;ratioP2;P2;SDS_P1;SDS_P2;PMS_P1;PMS_P2;Temp;Humidity;BMP_temperature;BMP_pressure;BME280_temperature;BME280_humidity;BME280_pressure;Samples;Min_cycle;Max_cycle;Signal;HPM_P1;HPM_P2
2022/11/26 00:00:38;;;;;;;;;;;3.50;90.40;;;;;;5035414;28;20530;-75
2022/11/26 00:03:03;;;;;;;;;;;3.50;90.40;;;;;;5052534;28;19960;-75
2022/11/26 00:05:29;;;;;;;;;;;3.50;90.50;;;;;;5033150;28;19936;-75
2022/11/26 00:07:55;;;;;;;;;;;3.40;90.40;;;;;;5022252;28;19924;-74
2022/11/26 00:10:21;;;;;;;;;;;3.40;90.40;;;;;;5044722;28;19925;-75
2022/11/26 00:12:47;;;;;;;;;;;3.40;90.50;;;;;;5051681;28;19994;-75
2022/11/26 00:15:15;;;;;;;;;;;3.40;90.50;;;;;;5028826;28;20304;-75
2022/11/26 00:17:41;;;;;;;;;;;3.40;90.50;;;;;;5033518;28;20036;-75
2022/11/26 00:20:07;;;;;;;;;;;3.40;90.50;;;;;;5029507;28;19955;-75
2022/11/26 00:22:34;;;;;;;;;;;3.40;90.50;;;;;;5033220;28;19921;-75
2022/11/26 00:24:59;;;;;;;;;;;3.50;90.50;;;;;;5030940;28;19921;-75
2022/11/26 00:27:25;;;;;;;;;;;3.40;90.50;;;;;;5069367;28;19928;-75
2022/11/26 00:29:50;;;;;;;;;;;3.40;90.50;;;;;;5029246;28;19917;-74
2022/11/26 00:32:16;;;;;;;;;;;3.40;90.50;;;;;;5031752;28;19917;-75
2022/11/26 00:34:42;;;;;;;;;;;3.40;90.50;;;;;;5028511;28;19921;-74
2022/11/26 00:37:24;;;;;;;;;;;3.40;90.50;;;;;;5029431;28;19995;-75
2022/11/26 00:39:50;;;;;;;;;;;3.40;90.50;;;;;;4989164;28;20023;-75
2022/11/26 00:42:15;;;;;;;;;;;3.40;90.50;;;;;;5022597;28;20658;-75
2022/11/26 00:44:41;;;;;;;;;;;3.50;90.50;;;;;;5024285;28;19925;-75
2022/11/26 00:47:08;;;;;;;;;;;3.40;90.50;;;;;;5026222;28;19913;-75
2022/11/26 00:49:33;;;;;;;;;;;3.40;90.50;;;;;;5020660;28;19937;-75
2022/11/26 00:51:59;;;;;;;;;;;3.40;90.50;;;;;;5012506;28;19921;-75
2022/11/26 00:54:24;;;;;;;;;;;3.40;90.50;;;;;;4996826;28;19973;-75
2022/11/26 00:56:49;;;;;;;;;;;3.40;90.50;;;;;;5026395;28;19971;-75
2022/11/26 00:59:18;;;;;;;;;;;3.40;90.50;;;;;;5009567;28;19924;-75
2022/11/26 01:01:44;;;;;;;;;;;3.40;90.50;;;;;;5044531;28;19920;-74
2022/11/26 01:04:09;;;;;;;;;;;3.40;90.50;;;;;;5015768;28;19917;-74
2022/11/26 01:06:36;;;;;;;;;;;3.40;90.50;;;;;;5011461;28;20122;-75
2022/11/26 01:09:02;;;;;;;;;;;3.40;90.90;;;;;;5044737;28;19921;-74
2022/11/26 01:11:28;;;;;;;;;;;3.40;90.50;;;;;;5043175;28;19917;-74
2022/11/26 01:13:54;;;;;;;;;;;3.40;90.50;;;;;;5031641;28;19929;-75
2022/11/26 01:16:23;;;;;;;;;;;3.40;90.50;;;;;;5030136;28;20015;-74
2022/11/26 01:18:49;;;;;;;;;;;3.40;90.60;;;;;;5026822;28;19917;-74
2022/11/26 01:21:14;;;;;;;;;;;3.40;90.60;;;;;;5019000;28;19963;-76
2022/11/26 01:23:40;;;;;;;;;;;3.40;90.50;;;;;;5032177;28;19917;-76
2022/11/26 01:26:05;;;;;;;;;;;3.40;90.60;;;;;;5048066;28;19925;-75
2022/11/26 01:28:31;;;;;;;;;;;3.40;90.60;;;;;;5031534;28;19956;-76
2022/11/26 01:30:56;;;;;;;;;;;3.40;90.60;;;;;;5020631;28;20013;-75
2022/11/26 01:33:22;;;;;;;;;;;3.40;90.50;;;;;;5028552;28;19932;-76
2022/11/26 01:35:47;;;;;;;;;;;3.50;90.60;;;;;;5021752;28;19949;-76
2022/11/26 01:38:13;;;;;;;;;;;3.50;90.60;;;;;;5031683;28;19981;-75
2022/11/26 01:40:50;;;;;;;;;;;3.50;90.50;;;;;;5036847;28;20401;-76
2022/11/26 01:43:19;;;;;;;;;;;3.40;90.50;;;;;;5039280;28;19925;-76
2022/11/26 01:45:44;;;;;;;;;;;3.40;90.50;;;;;;5034181;28;19956;-75
2022/11/26 01:48:36;;;;;;;;;;;3.40;90.90;;;;;;5027377;28;20823;-76
2022/11/26 01:51:03;;;;;;;;;;;3.40;90.50;;;;;;5024638;28;19956;-76
2022/11/26 01:53:29;;;;;;;;;;;3.40;90.50;;;;;;5046827;28;19945;-75
2022/11/26 01:55:56;;;;;;;;;;;3.50;90.50;;;;;;5014572;28;19917;-74
2022/11/26 01:58:23;;;;;;;;;;;3.50;90.60;;;;;;5005750;28;19921;-75
2022/11/26 02:00:49;;;;;;;;;;;3.50;90.50;;;;;;5028059;28;19981;-75
2022/11/26 02:03:14;;;;;;;;;;;3.50;90.50;;;;;;5018113;28;19949;-75
2022/11/26 02:05:41;;;;;;;;;;;3.50;90.50;;;;;;5031136;28;19934;-76
2022/11/26 02:08:07;;;;;;;;;;;3.50;90.60;;;;;;5018132;28;19925;-76
2022/11/26 02:10:33;;;;;;;;;;;3.50;90.60;;;;;;5017812;28;20173;-76
2022/11/26 02:12:58;;;;;;;;;;;3.50;90.50;;;;;;5059468;28;19925;-76
2022/11/26 02:15:24;;;;;;;;;;;3.50;90.50;;;;;;5029793;28;19977;-75
2022/11/26 02:18:03;;;;;;;;;;;3.50;90.50;;;;;;5055430;28;19931;-75
2022/11/26 02:20:29;;;;;;;;;;;3.50;90.50;;;;;;5029950;28;20063;-75
2022/11/26 02:22:57;;;;;;;;;;;3.50;90.50;;;;;;5048308;28;19948;-76
2022/11/26 02:25:38;;;;;;;;;;;3.50;90.50;;;;;;5026526;28;20019;-75
2022/11/26 02:28:09;;;;;;;;;;;3.50;90.50;;;;;;5042960;28;19917;-76
2022/11/26 02:30:35;;;;;;;;;;;3.50;90.50;;;;;;5046969;28;19921;-76
2022/11/26 02:33:01;;;;;;;;;;;3.50;90.50;;;;;;5029451;28;19944;-76
2022/11/26 02:35:30;;;;;;;;;;;3.50;90.50;;;;;;5034087;28;19931;-76
2022/11/26 02:37:58;;;;;;;;;;;3.60;90.60;;;;;;4988027;28;19925;-76
2022/11/26 02:40:23;;;;;;;;;;;3.60;90.60;;;;;;5018773;28;20377;-76
2022/11/26 02:42:48;;;;;;;;;;;3.60;90.60;;;;;;5020438;28;19924;-76
2022/11/26 02:45:19;;;;;;;;;;;3.60;90.60;;;;;;5050787;28;20126;-77
2022/11/26 02:47:45;;;;;;;;;;;3.60;90.60;;;;;;5032887;28;19932;-76
2022/11/26 02:50:23;;;;;;;;;;;3.60;90.60;;;;;;5059455;28;19939;-75
2022/11/26 02:52:48;;;;;;;;;;;3.60;90.50;;;;;;5035182;28;19921;-76
2022/11/26 02:55:13;;;;;;;;;;;3.60;90.60;;;;;;5033536;28;19931;-76
2022/11/26 02:57:57;;;;;;;;;;;3.60;90.60;;;;;;5037068;28;19917;-76
2022/11/26 03:00:25;;;;;;;;;;;3.60;90.60;;;;;;5034807;28;19925;-77
2022/11/26 03:03:07;;;;;;;;;;;3.60;90.60;;;;;;5031062;28;19952;-76
2022/11/26 03:05:33;;;;;;;;;;;3.70;90.60;;;;;;5034135;28;19928;-76
2022/11/26 03:07:59;;;;;;;;;;;3.60;90.50;;;;;;5053176;28;19923;-77
2022/11/26 03:10:25;;;;;;;;;;;3.60;90.60;;;;;;5016184;28;19921;-77
2022/11/26 03:12:51;;;;;;;;;;;3.70;90.60;;;;;;5030775;28;19929;-76
2022/11/26 03:15:16;;;;;;;;;;;3.70;90.60;;;;;;5015003;28;19921;-75
2022/11/26 03:17:41;;;;;;;;;;;3.70;90.60;;;;;;5031906;28;19921;-76
2022/11/26 03:20:07;;;;;;;;;;;3.70;90.60;;;;;;5014718;28;19984;-76
2022/11/26 03:22:32;;;;;;;;;;;3.70;90.60;;;;;;5033993;28;19920;-76
2022/11/26 03:24:58;;;;;;;;;;;3.70;90.50;;;;;;5052901;28;19948;-76
2022/11/26 03:27:23;;;;;;;;;;;3.70;90.60;;;;;;5034272;28;19920;-76
2022/11/26 03:29:49;;;;;;;;;;;3.70;90.50;;;;;;5017187;28;20055;-77
2022/11/26 03:32:14;;;;;;;;;;;3.70;90.50;;;;;;5052656;28;20061;-76
2022/11/26 03:34:41;;;;;;;;;;;3.80;90.60;;;;;;5026667;28;20655;-76
2022/11/26 03:37:07;;;;;;;;;;;3.80;90.60;;;;;;5030767;28;19983;-76
2022/11/26 03:39:32;;;;;;;;;;;3.80;90.50;;;;;;5022104;28;19960;-76
2022/11/26 03:41:58;;;;;;;;;;;3.80;90.50;;;;;;5031473;28;19952;-76
2022/11/26 03:44:23;;;;;;;;;;;3.80;90.50;;;;;;5053611;28;20514;-76
2022/11/26 03:46:49;;;;;;;;;;;3.80;90.50;;;;;;5052794;28;20069;-76
2022/11/26 03:49:14;;;;;;;;;;;3.80;90.50;;;;;;5020690;28;19931;-76
2022/11/26 03:51:40;;;;;;;;;;;3.80;90.50;;;;;;5049939;28;20203;-76
2022/11/26 03:54:05;;;;;;;;;;;3.80;90.50;;;;;;5033184;28;19932;-76
2022/11/26 03:56:31;;;;;;;;;;;3.80;90.50;;;;;;5037420;28;19917;-76
2022/11/26 03:58:56;;;;;;;;;;;3.80;90.50;;;;;;5054256;28;20361;-76
2022/11/26 04:01:21;;;;;;;;;;;3.90;90.50;;;;;;5035412;28;19948;-76
2022/11/26 04:03:47;;;;;;;;;;;3.90;90.50;;;;;;5050245;28;19946;-75
2022/11/26 04:06:12;;;;;;;;;;;3.90;90.50;;;;;;5020301;28;20003;-76
2022/11/26 04:08:38;;;;;;;;;;;3.90;90.60;;;;;;5062485;28;19905;-76
2022/11/26 04:11:03;;;;;;;;;;;3.90;90.90;;;;;;5027531;28;20019;-75
2022/11/26 04:13:29;;;;;;;;;;;3.90;90.50;;;;;;5031430;28;19929;-76
2022/11/26 04:15:54;;;;;;;;;;;3.90;90.50;;;;;;5043089;28;19987;-76
2022/11/26 04:18:20;;;;;;;;;;;3.90;90.50;;;;;;5019510;28;19932;-76
2022/11/26 04:20:45;;;;;;;;;;;3.90;90.50;;;;;;5066169;28;19929;-76
2022/11/26 04:23:10;;;;;;;;;;;3.90;90.50;;;;;;5063709;28;20389;-76
2022/11/26 04:25:36;;;;;;;;;;;4.00;90.50;;;;;;5013980;28;20020;-75
2022/11/26 04:28:01;;;;;;;;;;;4.00;90.50;;;;;;5028439;28;20294;-75
2022/11/26 04:30:27;;;;;;;;;;;4.00;90.50;;;;;;5028483;28;19971;-75
2022/11/26 04:32:52;;;;;;;;;;;4.00;90.50;;;;;;5033274;28;19925;-76
2022/11/26 04:35:18;;;;;;;;;;;4.00;90.50;;;;;;5020866;28;19917;-76
2022/11/26 04:37:43;;;;;;;;;;;4.00;90.50;;;;;;5015776;28;20408;-75
2022/11/26 04:40:09;;;;;;;;;;;4.00;90.50;;;;;;5050267;28;19917;-76
2022/11/26 04:42:34;;;;;;;;;;;4.00;90.50;;;;;;5042232;28;20010;-76
2022/11/26 04:45:00;;;;;;;;;;;4.10;90.50;;;;;;5022386;28;20385;-76
2022/11/26 04:47:25;;;;;;;;;;;4.10;90.50;;;;;;5050561;28;19921;-76
2022/11/26 04:49:51;;;;;;;;;;;4.10;90.50;;;;;;5018000;28;19940;-77
2022/11/26 04:52:16;;;;;;;;;;;4.10;90.50;;;;;;5049176;28;20341;-76
2022/11/26 04:54:42;;;;;;;;;;;4.10;90.50;;;;;;5032026;28;19913;-75
2022/11/26 04:57:07;;;;;;;;;;;4.10;90.50;;;;;;5049919;28;19996;-76
2022/11/26 04:59:33;;;;;;;;;;;4.10;90.50;;;;;;5061311;28;19931;-76
2022/11/26 05:01:58;;;;;;;;;;;4.10;90.50;;;;;;5040418;28;19931;-76
2022/11/26 05:04:25;;;;;;;;;;;4.10;90.50;;;;;;5037543;28;19921;-76
2022/11/26 05:06:50;;;;;;;;;;;4.10;90.80;;;;;;5033043;28;19984;-76
2022/11/26 05:09:15;;;;;;;;;;;4.10;90.50;;;;;;5037643;28;19961;-76
2022/11/26 05:11:41;;;;;;;;;;;4.10;90.50;;;;;;5013817;28;22131;-76
2022/11/26 05:14:06;;;;;;;;;;;4.00;90.50;;;;;;5050811;28;19956;-74
2022/11/26 05:16:32;;;;;;;;;;;4.00;90.50;;;;;;5054349;28;19927;-76
2022/11/26 05:18:57;;;;;;;;;;;4.00;90.40;;;;;;5025884;28;19913;-76
2022/11/26 05:21:23;;;;;;;;;;;4.00;90.50;;;;;;5034474;28;19932;-75
2022/11/26 05:23:48;;;;;;;;;;;4.00;90.50;;;;;;5038081;28;20281;-76
2022/11/26 05:26:14;;;;;;;;;;;4.00;90.50;;;;;;5038758;28;19921;-76
2022/11/26 05:28:39;;;;;;;;;;;4.00;90.50;;;;;;5035069;28;19956;-76
2022/11/26 05:31:05;;;;;;;;;;;3.90;90.50;;;;;;5034042;28;19921;-77
2022/11/26 05:33:30;;;;;;;;;;;3.90;90.50;;;;;;5054509;28;20047;-77
2022/11/26 05:35:56;;;;;;;;;;;3.90;90.50;;;;;;5051730;28;19925;-76
2022/11/26 05:38:21;;;;;;;;;;;3.90;90.50;;;;;;5032765;28;19917;-76
2022/11/26 05:40:46;;;;;;;;;;;3.90;90.50;;;;;;5048828;28;20227;-76
2022/11/26 05:43:12;;;;;;;;;;;3.90;90.50;;;;;;5029398;28;19975;-76
2022/11/26 05:45:37;;;;;;;;;;;3.80;90.50;;;;;;5015108;28;20320;-76
2022/11/26 05:48:03;;;;;;;;;;;3.80;90.50;;;;;;5032363;28;19917;-76
2022/11/26 05:50:29;;;;;;;;;;;3.80;90.50;;;;;;5027747;28;20323;-76
2022/11/26 05:52:54;;;;;;;;;;;3.80;90.50;;;;;;5030278;28;19921;-76
2022/11/26 05:55:19;;;;;;;;;;;3.80;90.50;;;;;;5027944;28;19921;-76
2022/11/26 05:57:45;;;;;;;;;;;3.70;90.50;;;;;;5020829;28;19970;-76
2022/11/26 06:00:11;;;;;;;;;;;3.70;90.50;;;;;;5021702;28;19921;-75
2022/11/26 06:02:51;;;;;;;;;;;3.70;90.50;;;;;;5026448;28;19921;-75
2022/11/26 06:05:17;;;;;;;;;;;3.70;90.50;;;;;;5011756;28;19974;-75
2022/11/26 06:07:42;;;;;;;;;;;3.70;90.50;;;;;;5040764;28;19917;-75
2022/11/26 06:10:08;;;;;;;;;;;3.70;90.50;;;;;;5049000;28;19927;-76
2022/11/26 06:12:34;;;;;;;;;;;3.60;90.40;;;;;;5015344;28;19925;-75
2022/11/26 06:14:59;;;;;;;;;;;3.60;90.50;;;;;;5032254;28;19964;-75
2022/11/26 06:17:25;;;;;;;;;;;3.60;90.50;;;;;;5059057;28;19924;-75
2022/11/26 06:19:51;;;;;;;;;;;3.60;90.50;;;;;;5051640;28;19935;-75
2022/11/26 06:22:16;;;;;;;;;;;3.50;90.50;;;;;;5035527;28;20144;-74
2022/11/26 06:24:42;;;;;;;;;;;3.50;90.50;;;;;;5019600;28;19936;-74
2022/11/26 06:27:07;;;;;;;;;;;3.50;90.50;;;;;;5030196;28;19924;-74
2022/11/26 06:29:33;;;;;;;;;;;3.40;90.50;;;;;;5032710;28;19916;-73
2022/11/26 06:31:58;;;;;;;;;;;3.40;90.90;;;;;;5051102;28;20515;-74
2022/11/26 06:34:24;;;;;;;;;;;3.40;90.50;;;;;;5050830;28;19947;-75
2022/11/26 06:36:49;;;;;;;;;;;3.40;90.50;;;;;;5059516;28;19924;-75
2022/11/26 06:39:15;;;;;;;;;;;3.40;90.50;;;;;;5017882;28;19924;-74
2022/11/26 06:41:40;;;;;;;;;;;3.40;90.60;;;;;;5027458;28;20401;-73
2022/11/26 06:44:06;;;;;;;;;;;3.40;90.60;;;;;;5065871;28;19934;-74
2022/11/26 06:46:32;;;;;;;;;;;3.30;90.50;;;;;;5054944;28;19940;-73
2022/11/26 06:49:01;;;;;;;;;;;3.30;90.50;;;;;;5035551;28;19917;-73
2022/11/26 06:51:27;;;;;;;;;;;3.30;90.50;;;;;;5033844;28;19928;-74
2022/11/26 06:53:52;;;;;;;;;;;3.30;90.60;;;;;;5013988;28;20021;-75
2022/11/26 06:56:18;;;;;;;;;;;3.30;90.60;;;;;;5045217;28;19927;-75
2022/11/26 06:58:45;;;;;;;;;;;3.30;90.60;;;;;;5019014;28;19932;-74
2022/11/26 07:01:11;;;;;;;;;;;3.30;90.60;;;;;;5044573;28;19917;-69
2022/11/26 07:03:37;;;;;;;;;;;3.30;90.60;;;;;;5027237;28;19971;-74
2022/11/26 07:06:02;;;;;;;;;;;3.30;90.60;;;;;;5025437;28;19925;-74
2022/11/26 07:08:28;;;;;;;;;;;3.30;90.60;;;;;;5006814;28;21694;-73
2022/11/26 07:10:53;;;;;;;;;;;3.30;90.60;;;;;;5028165;28;19932;-75
2022/11/26 07:13:18;;;;;;;;;;;3.30;90.60;;;;;;5023385;28;19935;-74
2022/11/26 07:15:46;;;;;;;;;;;3.30;90.60;;;;;;5031028;28;20398;-73
2022/11/26 07:18:11;;;;;;;;;;;3.20;90.60;;;;;;5037842;28;19920;-73
2022/11/26 07:20:37;;;;;;;;;;;3.30;90.60;;;;;;5053755;28;19923;-74
2022/11/26 07:23:03;;;;;;;;;;;3.30;90.60;;;;;;5031327;28;19916;-72
2022/11/26 07:25:29;;;;;;;;;;;3.30;90.60;;;;;;5027704;28;19928;-75
2022/11/26 07:27:54;;;;;;;;;;;3.30;90.60;;;;;;5013605;28;19921;-75
2022/11/26 07:30:20;;;;;;;;;;;3.20;90.60;;;;;;5055929;28;19927;-73
2022/11/26 07:32:45;;;;;;;;;;;3.30;90.60;;;;;;5060845;28;20002;-74
2022/11/26 07:35:11;;;;;;;;;;;3.30;90.60;;;;;;5044654;28;19921;-72
2022/11/26 07:37:36;;;;;;;;;;;3.20;90.60;;;;;;5037509;28;19924;-73
2022/11/26 07:40:02;;;;;;;;;;;3.30;90.70;;;;;;5020310;28;20419;-72
2022/11/26 07:42:31;;;;;;;;;;;3.30;90.70;;;;;;5012737;28;19918;-73
2022/11/26 07:44:56;;;;;;;;;;;3.30;90.70;;;;;;5026821;28;19931;-74
2022/11/26 07:47:22;;;;;;;;;;;3.30;90.70;;;;;;5026611;28;20019;-74
2022/11/26 07:49:47;;;;;;;;;;;3.30;90.70;;;;;;5048810;28;20023;-73
2022/11/26 07:52:13;;;;;;;;;;;3.30;90.70;;;;;;5047240;28;19917;-74
2022/11/26 07:54:38;;;;;;;;;;;3.30;91.00;;;;;;5021601;28;19921;-74
2022/11/26 07:57:03;;;;;;;;;;;3.30;90.70;;;;;;5046003;28;19949;-73
2022/11/26 07:59:29;;;;;;;;;;;3.40;90.70;;;;;;5022886;28;19943;-74
2022/11/26 08:01:54;;;;;;;;;;;3.40;90.70;;;;;;5021967;28;19921;-73
2022/11/26 08:04:20;;;;;;;;;;;3.30;90.60;;;;;;5043516;28;19925;-73
2022/11/26 08:06:45;;;;;;;;;;;3.40;90.70;;;;;;5024258;28;20364;-75
2022/11/26 08:09:11;;;;;;;;;;;3.30;90.70;;;;;;5025834;28;20009;-73
2022/11/26 08:11:36;;;;;;;;;;;3.40;90.70;;;;;;5030737;28;20834;-73
2022/11/26 08:14:03;;;;;;;;;;;3.40;90.70;;;;;;5016026;28;19932;-73
2022/11/26 08:16:28;;;;;;;;;;;3.40;90.70;;;;;;5033418;28;19925;-74
2022/11/26 08:18:57;;;;;;;;;;;3.40;90.70;;;;;;5022564;28;20824;-74
2022/11/26 08:21:23;;;;;;;;;;;3.50;91.00;;;;;;5024778;28;19921;-75
2022/11/26 08:23:48;;;;;;;;;;;3.40;90.70;;;;;;5021046;28;19975;-74
2022/11/26 08:26:14;;;;;;;;;;;3.50;90.70;;;;;;5024409;28;19921;-74
2022/11/26 08:28:42;;;;;;;;;;;3.50;90.70;;;;;;5025554;28;20448;-75
2022/11/26 08:31:08;;;;;;;;;;;3.60;90.70;;;;;;5028855;28;19923;-74
2022/11/26 08:33:34;;;;;;;;;;;3.60;90.70;;;;;;5025169;28;19950;-73
2022/11/26 08:35:59;;;;;;;;;;;3.60;90.70;;;;;;5014454;28;19921;-75
2022/11/26 08:38:25;;;;;;;;;;;3.70;90.70;;;;;;5000852;28;19921;-75
2022/11/26 08:40:53;;;;;;;;;;;3.70;90.70;;;;;;5045868;28;19966;-74
2022/11/26 08:43:19;;;;;;;;;;;3.80;90.70;;;;;;5024252;28;19927;-75
2022/11/26 08:45:50;;;;;;;;;;;3.80;90.70;;;;;;5011464;28;19974;-73
2022/11/26 08:48:15;;;;;;;;;;;3.80;90.70;;;;;;5010545;28;19920;-74
2022/11/26 08:50:41;;;;;;;;;;;3.90;90.70;;;;;;5018712;28;19924;-74
2022/11/26 08:53:06;;;;;;;;;;;3.90;90.70;;;;;;5033127;28;19928;-73
2022/11/26 08:55:32;;;;;;;;;;;4.00;90.70;;;;;;5018030;28;20237;-71
2022/11/26 08:57:57;;;;;;;;;;;4.00;90.70;;;;;;5012414;28;19913;-70
2022/11/26 09:00:23;;;;;;;;;;;4.10;90.70;;;;;;5015198;28;19917;-73
2022/11/26 09:02:48;;;;;;;;;;;4.10;90.70;;;;;;5021647;28;19919;-75
2022/11/26 09:05:14;;;;;;;;;;;4.20;90.70;;;;;;5037332;28;19929;-73
2022/11/26 09:07:39;;;;;;;;;;;4.20;90.70;;;;;;5039727;28;20462;-73
2022/11/26 09:10:05;;;;;;;;;;;4.20;90.70;;;;;;5058871;28;19917;-74
2022/11/26 09:12:30;;;;;;;;;;;4.30;90.70;;;;;;5022811;28;20041;-74
2022/11/26 09:14:56;;;;;;;;;;;4.40;90.80;;;;;;5039185;28;19936;-74
2022/11/26 09:17:21;;;;;;;;;;;4.50;90.80;;;;;;5024045;28;19917;-74
2022/11/26 09:19:47;;;;;;;;;;;4.70;90.80;;;;;;5021557;28;19917;-74
2022/11/26 09:22:12;;;;;;;;;;;4.80;90.80;;;;;;5020550;28;19920;-74
2022/11/26 09:24:38;;;;;;;;;;;4.90;90.70;;;;;;5035210;28;19963;-73
2022/11/26 09:27:03;;;;;;;;;;;5.00;90.70;;;;;;5022797;28;19987;-74
2022/11/26 09:29:28;;;;;;;;;;;5.10;90.70;;;;;;5020735;28;20521;-74
2022/11/26 09:31:54;;;;;;;;;;;5.20;90.70;;;;;;5041932;28;19925;-74
2022/11/26 09:34:19;;;;;;;;;;;5.30;90.70;;;;;;5041311;28;19925;-74
2022/11/26 09:36:45;;;;;;;;;;;5.40;90.60;;;;;;5019302;28;20377;-75
2022/11/26 09:39:11;;;;;;;;;;;5.50;90.60;;;;;;5019459;28;19966;-73
2022/11/26 09:41:45;;;;;;;;;;;5.60;90.60;;;;;;5021008;28;19924;-74
2022/11/26 09:44:18;;;;;;;;;;;5.60;90.60;;;;;;5037407;28;19917;-73
2022/11/26 09:47:02;;;;;;;;;;;5.80;90.60;;;;;;5027374;28;19913;-74
2022/11/26 09:49:29;;;;;;;;;;;5.90;90.60;;;;;;5020550;28;19925;-75
2022/11/26 09:51:54;;;;;;;;;;;6.00;90.60;;;;;;5016705;28;19952;-74
2022/11/26 09:54:20;;;;;;;;;;;6.10;90.60;;;;;;5014852;28;20373;-73
2022/11/26 09:56:47;;;;;;;;;;;6.30;90.60;;;;;;4995450;28;19925;-73
2022/11/26 09:59:14;;;;;;;;;;;6.40;90.60;;;;;;5017863;28;19924;-74
2022/11/26 10:01:39;;;;;;;;;;;6.60;90.50;;;;;;5016849;28;19919;-74
2022/11/26 10:04:07;;;;;;;;;;;6.70;90.50;;;;;;5022591;28;20325;-71
2022/11/26 10:06:36;;;;;;;;;;;6.80;90.50;;;;;;5007006;28;19913;-74
2022/11/26 10:09:01;;;;;;;;;;;7.00;90.40;;;;;;5026676;28;19916;-74
2022/11/26 10:11:27;;;;;;;;;;;7.20;90.40;;;;;;5042735;28;19959;-73
2022/11/26 10:14:03;;;;;;;;;;;7.30;90.40;;;;;;5035948;28;20052;-74
2022/11/26 10:16:32;;;;;;;;;;;7.50;90.40;;;;;;5010917;28;19920;-73
2022/11/26 10:19:03;;;;;;;;;;;7.60;90.30;;;;;;5042140;28;19917;-74
2022/11/26 10:21:33;;;;;;;;;;;7.80;90.30;;;;;;5033779;28;20327;-74
2022/11/26 10:24:01;;;;;;;;;;;7.90;90.20;;;;;;5062784;28;19928;-74
2022/11/26 10:26:37;;;;;;;;;;;8.00;90.20;;;;;;5043824;28;19925;-73
2022/11/26 10:29:02;;;;;;;;;;;8.20;90.10;;;;;;5021318;28;19928;-73
2022/11/26 10:31:30;;;;;;;;;;;8.30;90.10;;;;;;5039719;28;19932;-73
2022/11/26 10:34:00;;;;;;;;;;;8.40;90.00;;;;;;5020237;28;19976;-74
2022/11/26 10:36:29;;;;;;;;;;;8.50;90.00;;;;;;5021192;28;19976;-74
2022/11/26 10:38:55;;;;;;;;;;;8.50;90.30;;;;;;5010674;28;19957;-74
2022/11/26 10:41:21;;;;;;;;;;;8.60;89.90;;;;;;5040556;28;20362;-72
2022/11/26 10:43:47;;;;;;;;;;;8.70;89.80;;;;;;5015777;28;20348;-69
2022/11/26 10:46:28;;;;;;;;;;;8.70;89.60;;;;;;5021694;28;19960;-73
2022/11/26 10:48:53;;;;;;;;;;;8.70;89.60;;;;;;4999378;28;19975;-73
2022/11/26 10:51:23;;;;;;;;;;;8.70;90.10;;;;;;5001786;28;19913;-74
2022/11/26 10:53:55;;;;;;;;;;;8.80;89.60;;;;;;5041549;28;19952;-73
2022/11/26 10:56:46;;;;;;;;;;;8.80;89.50;;;;;;5016679;28;19972;-74
2022/11/26 10:59:24;;;;;;;;;;;8.80;89.50;;;;;;5025810;28;19960;-74
2022/11/26 11:01:50;;;;;;;;;;;8.90;89.50;;;;;;5037403;28;20559;-74
2022/11/26 11:04:21;;;;;;;;;;;8.90;89.40;;;;;;5019159;28;19933;-70
2022/11/26 11:06:47;;;;;;;;;;;9.00;89.40;;;;;;5036026;28;19913;-74
2022/11/26 11:09:21;;;;;;;;;;;9.00;89.40;;;;;;4997623;28;19920;-75
2022/11/26 11:11:47;;;;;;;;;;;9.00;89.30;;;;;;5040985;28;19920;-75
2022/11/26 11:14:26;;;;;;;;;;;9.00;89.30;;;;;;5023166;28;19991;-74
2022/11/26 11:16:51;;;;;;;;;;;9.10;90.00;;;;;;5039743;28;19924;-75
2022/11/26 11:19:23;;;;;;;;;;;9.10;89.20;;;;;;5039501;28;19923;-75
2022/11/26 11:21:48;;;;;;;;;;;9.10;89.20;;;;;;5042472;28;19913;-75
2022/11/26 11:24:15;;;;;;;;;;;9.10;89.10;;;;;;5020455;28;19916;-74
2022/11/26 11:26:42;;;;;;;;;;;9.10;89.10;;;;;;5023646;28;19924;-74
2022/11/26 11:29:21;;;;;;;;;;;9.10;89.10;;;;;;5017981;28;19945;-74
2022/11/26 11:31:47;;;;;;;;;;;9.10;89.00;;;;;;5021989;28;19927;-74
2022/11/26 11:34:17;;;;;;;;;;;9.10;89.00;;;;;;5040841;28;19916;-74
2022/11/26 11:36:42;;;;;;;;;;;9.20;89.00;;;;;;5013052;28;20388;-75
2022/11/26 11:39:08;;;;;;;;;;;9.20;89.00;;;;;;5037989;28;19923;-75
2022/11/26 11:41:45;;;;;;;;;;;9.20;88.90;;;;;;5002582;28;20371;-74
2022/11/26 11:44:19;;;;;;;;;;;9.20;88.90;;;;;;5021250;28;20459;-74
2022/11/26 11:46:50;;;;;;;;;;;9.20;88.90;;;;;;5021735;28;19921;-77
2022/11/26 11:49:16;;;;;;;;;;;9.20;88.90;;;;;;5038517;28;20258;-74
2022/11/26 11:51:46;;;;;;;;;;;9.20;88.90;;;;;;5035764;28;19970;-74
2022/11/26 11:54:16;;;;;;;;;;;9.30;88.90;;;;;;5024276;28;19920;-74
2022/11/26 11:56:45;;;;;;;;;;;9.30;88.90;;;;;;5020391;28;20026;-75
2022/11/26 11:59:24;;;;;;;;;;;9.30;88.90;;;;;;5015755;28;19935;-74
2022/11/26 12:01:57;;;;;;;;;;;9.40;89.00;;;;;;5024361;28;19980;-73
2022/11/26 12:04:28;;;;;;;;;;;9.50;89.10;;;;;;5039618;28;19929;-75
2022/11/26 12:06:57;;;;;;;;;;;9.70;89.30;;;;;;5038146;28;19917;-74
2022/11/26 12:09:25;;;;;;;;;;;9.90;89.30;;;;;;5029041;28;19924;-76
2022/11/26 12:11:57;;;;;;;;;;;10.20;89.30;;;;;;5034169;28;20442;-74
2022/11/26 12:14:32;;;;;;;;;;;10.30;89.10;;;;;;5019527;28;19942;-74
2022/11/26 12:17:08;;;;;;;;;;;10.50;88.90;;;;;;5023419;28;19932;-74
2022/11/26 12:19:47;;;;;;;;;;;10.50;88.60;;;;;;5004760;28;19948;-74
2022/11/26 12:22:15;;;;;;;;;;;10.50;88.40;;;;;;5018950;28;19929;-75
2022/11/26 12:24:41;;;;;;;;;;;10.50;88.30;;;;;;5046231;28;19921;-75
2022/11/26 12:27:36;;;;;;;;;;;10.50;88.10;;;;;;5031245;28;19932;-74
2022/11/26 12:30:05;;;;;;;;;;;10.50;88.10;;;;;;5017996;28;19995;-74
2022/11/26 12:32:32;;;;;;;;;;;10.50;88.10;;;;;;5019062;28;19925;-75
2022/11/26 12:34:59;;;;;;;;;;;10.40;88.10;;;;;;5027522;28;19924;-74
2022/11/26 12:37:25;;;;;;;;;;;10.40;88.10;;;;;;5000885;28;19965;-75
2022/11/26 12:39:59;;;;;;;;;;;10.40;88.20;;;;;;5039603;28;20339;-74
2022/11/26 12:42:36;;;;;;;;;;;10.40;88.20;;;;;;5021590;28;19929;-74
2022/11/26 12:45:20;;;;;;;;;;;10.40;88.20;;;;;;5046420;28;19994;-74
2022/11/26 12:47:50;;;;;;;;;;;10.40;88.20;;;;;;5034842;28;19917;-75
2022/11/26 12:50:28;;;;;;;;;;;10.40;88.10;;;;;;5018313;28;19925;-74
2022/11/26 12:53:12;;;;;;;;;;;10.40;88.10;;;;;;5050695;28;20285;-74
2022/11/26 12:55:42;;;;;;;;;;;10.40;88.10;;;;;;5035560;28;19925;-75
2022/11/26 12:58:18;;;;;;;;;;;10.40;88.10;;;;;;5007445;28;19932;-75
2022/11/26 13:00:44;;;;;;;;;;;10.40;88.20;;;;;;5017818;28;19949;-74
2022/11/26 13:03:12;;;;;;;;;;;10.40;88.20;;;;;;5017648;28;20376;-74
2022/11/26 13:05:46;;;;;;;;;;;10.30;88.10;;;;;;4997754;28;20003;-74
2022/11/26 13:08:22;;;;;;;;;;;10.30;88.10;;;;;;5038495;28;19943;-74
2022/11/26 13:10:59;;;;;;;;;;;10.30;88.20;;;;;;5024498;28;19913;-74
2022/11/26 13:13:25;;;;;;;;;;;10.30;88.10;;;;;;5034622;28;19925;-75
2022/11/26 13:16:09;;;;;;;;;;;10.30;88.10;;;;;;5040435;28;19921;-74
2022/11/26 13:18:35;;;;;;;;;;;10.20;88.00;;;;;;5039283;28;19944;-75
2022/11/26 13:21:04;;;;;;;;;;;10.20;88.00;;;;;;5021461;28;19924;-74
2022/11/26 13:23:34;;;;;;;;;;;10.20;88.00;;;;;;5032887;28;19917;-75
2022/11/26 13:26:18;;;;;;;;;;;10.20;88.10;;;;;;5015721;28;22931;-74
2022/11/26 13:28:46;;;;;;;;;;;10.20;88.10;;;;;;5023638;28;20001;-74
2022/11/26 13:31:35;;;;;;;;;;;10.20;88.10;;;;;;5033776;28;19916;-74
2022/11/26 13:34:19;;;;;;;;;;;10.20;88.20;;;;;;5019511;28;19917;-74
2022/11/26 13:36:44;;;;;;;;;;;10.20;88.20;;;;;;5033846;28;19917;-75
2022/11/26 13:39:10;;;;;;;;;;;10.20;88.20;;;;;;5040845;28;19921;-74
2022/11/26 13:41:51;;;;;;;;;;;10.20;88.20;;;;;;5036310;28;19917;-75
2022/11/26 13:44:35;;;;;;;;;;;10.20;88.20;;;;;;5012250;28;19973;-75
2022/11/26 13:47:05;;;;;;;;;;;10.20;88.10;;;;;;5041635;28;20050;-74
2022/11/26 13:49:36;;;;;;;;;;;10.20;88.20;;;;;;5030541;28;19925;-75
2022/11/26 13:52:09;;;;;;;;;;;10.20;88.10;;;;;;5034869;28;20676;-75
2022/11/26 13:54:35;;;;;;;;;;;10.20;88.10;;;;;;5026355;28;19921;-74
2022/11/26 13:57:02;;;;;;;;;;;10.20;88.10;;;;;;5033660;28;20289;-75
2022/11/26 13:59:27;;;;;;;;;;;10.20;88.00;;;;;;5016718;28;20423;-75
2022/11/26 14:01:53;;;;;;;;;;;10.20;88.00;;;;;;5044950;28;19916;-75
2022/11/26 14:04:21;;;;;;;;;;;10.20;88.10;;;;;;5040407;28;19960;-74
2022/11/26 14:07:05;;;;;;;;;;;10.10;88.10;;;;;;5043816;28;19927;-75
2022/11/26 14:09:45;;;;;;;;;;;10.10;88.10;;;;;;5042565;28;19920;-75
2022/11/26 14:12:11;;;;;;;;;;;10.10;88.20;;;;;;5042387;28;19921;-74
2022/11/26 14:14:37;;;;;;;;;;;10.10;88.30;;;;;;5031782;28;19956;-75
2022/11/26 14:17:03;;;;;;;;;;;10.10;88.20;;;;;;5040492;28;19927;-74
2022/11/26 14:19:44;;;;;;;;;;;10.00;88.10;;;;;;5036245;28;19927;-75
2022/11/26 14:22:18;;;;;;;;;;;10.00;88.10;;;;;;5040325;28;20008;-74
2022/11/26 14:24:47;;;;;;;;;;;10.00;88.10;;;;;;5054090;28;19959;-75
2022/11/26 14:27:13;;;;;;;;;;;10.00;88.20;;;;;;5036693;28;19917;-75
2022/11/26 14:29:38;;;;;;;;;;;10.00;88.20;;;;;;5018193;28;19940;-75
2022/11/26 14:32:04;;;;;;;;;;;10.00;88.20;;;;;;5036700;28;20377;-74